KHYS/HYS METAR and TAF weather

Enter ICAO airport designator
Station Type Date Time Source
KHYS METAR 2020/08/14 16:05 UTC NOAA

KHYS 141605Z AUTO 15009KT 10SM BKN017 28/24 A2997 RMK AO2


Station Type Date Time Source
KHYS Decoded METAR 2020/08/14 16:05 UTC NOAA

Hays, Hays Regional Airport, KS, United States (KHYS) 38-51N 099-16W
Aug 14, 2020 - 12:05 PM EDT / 2020.08.14 1605 UTC
Wind: from the SSE (150 degrees) at 10 MPH (9 KT):0
Visibility: 10 mile(s):0
Sky conditions: mostly cloudy
Temperature: 82 F (28 C)
Dew Point: 75 F (24 C)
Relative Humidity: 78%
Pressure (altimeter): 29.97 in. Hg (1014 hPa)
ob: KHYS 141605Z AUTO 15009KT 10SM BKN017 28/24 A2997 RMK AO2
cycle: 16

Station Type Date Time Source
KHYS TAF 2020/08/14 14:45 UTC NOAA

TAF
AMD KHYS 141343Z 1414/1512 14006KT 3SM BR OVC002
TEMPO 1414/1416 1SM BR
FM141600 15007KT P6SM SCT010
FM150000 08006KT P6SM VCTS SCT080CB
FM150200 06007KT P6SM SCT250

Example: see airport list